Maersk Barry — OYJE2 — position and weather

sailwx.info

Track history (hours):
 
Tides and Currents Weather Stations Pressure Air Temp Water Temp Dewpoint Dewpoint Depression Visibility Wind Speed Wind Dir Waves Ship Positions

Maersk Barry

Last reported at 2015-Jun-02 06:32 UTC. Time now 2015-Jun-03 15:21 UTC.
Position N 33°15' E 030°20'.

Length 175 m; draft 9.5 m.

Type: Tanker. MMSI: 219127000.

Date/timePositionNaut miles runAvg speedWind from/ knotsBaromVisibWave heightAir tempDewpointWater temp
2015-Jun-02 06:32N 33°15' E 030°20'1714.1
2015-Jun-02 05:21N 33°27' E 030°06'21013.7
2015-Jun-01 14:05N 36°02' E 027°14'2213.8
2015-Jun-01 12:28N 36°18' E 026°55'1213.4
2015-Jun-01 11:33N 36°28' E 026°45'1313.2
2015-Jun-01 10:32N 36°39' E 026°35'1313.3
2015-Jun-01 09:33N 36°49' E 026°25'1212.2
2015-Jun-01 08:33N 36°57' E 026°14'1312.8
2015-Jun-01 07:33N 37°04' E 026°01'1313.0
2015-Jun-01 06:33N 37°14' E 025°50'1313.1
2015-Jun-01 05:33N 37°26' E 025°44'22111.0
2015-May-31 09:30N 40°47' E 027°41'2412.6
2015-May-31 07:33N 40°52' E 028°13'1412.3
2015-May-31 06:27N 40°53' E 028°31'19 9.4
2015-May-31 04:26N 40°57' E 028°55'33 3.0
2015-May-30 17:08N 41°30' E 029°07'  
Track history (hours):
 
Tides and Currents Weather Stations Pressure Air Temp Water Temp Dewpoint Dewpoint Depression Visibility Wind Speed Wind Dir Waves Ship Positions

Maersk Barry

Last reported at 2015-Jun-02 06:32 UTC. Time now 2015-Jun-03 15:21 UTC.
Position N 33°15' E 030°20'.

Length 175 m; draft 9.5 m.

Type: Tanker. MMSI: 219127000.

Date/timePositionNaut miles runAvg speedWind from/ knotsBaromVisibWave heightAir tempDewpointWater temp
2015-Jun-02 06:32N 33°15' E 030°20'1714.1
2015-Jun-02 05:21N 33°27' E 030°06'21013.7
2015-Jun-01 14:05N 36°02' E 027°14'2213.8
2015-Jun-01 12:28N 36°18' E 026°55'1213.4
2015-Jun-01 11:33N 36°28' E 026°45'1313.2
2015-Jun-01 10:32N 36°39' E 026°35'1313.3
2015-Jun-01 09:33N 36°49' E 026°25'1212.2
2015-Jun-01 08:33N 36°57' E 026°14'1312.8
2015-Jun-01 07:33N 37°04' E 026°01'1313.0
2015-Jun-01 06:33N 37°14' E 025°50'1313.1
2015-Jun-01 05:33N 37°26' E 025°44'22111.0
2015-May-31 09:30N 40°47' E 027°41'2412.6
2015-May-31 07:33N 40°52' E 028°13'1412.3
2015-May-31 06:27N 40°53' E 028°31'19 9.4
2015-May-31 04:26N 40°57' E 028°55'33 3.0
2015-May-30 17:08N 41°30' E 029°07'  

Dump ship's entire track history